Gaborone, Botswana

5:03 PM CAT on September 04, 2015 (GMT +0200)
Tlokweng | | Change Station
CLOSE
Current Station
Personal Weather Station
Location: Gaborone, SOUTH-EAST
Elevation: 3212 ft
Nearby Weather Stations

Elev 3212 ft 24.68 °S, 25.95 °E | Updated 1 second ago

Overcast
Overcast
65.1 °F
Feels Like 65.1 °F
N
0.0
Wind Variable Wind from SSW
Gusts 0.0 mph

Today
High -- | Low -- °F
--% Chance of Precip.
Yesterday
High -- | Low -- °F
Precip. -- in
6:25 AM 6:05 PM
Waning Gibbous, 59% visible
Pressure 30.27 in
Visibility 6.2 miles
Clouds Overcast 2500 ft
Dew Point 50 °F
Humidity 57%
Rainfall 0.05 in
Snow Depth Not available.
UV 0.0 out of 12
Pollen Not available.
Air Quality Not available.
Flu Activity Not available.
METAR FBSK 041500Z 06011KT 9999 OVC025 18/08 Q1025 NOSIG
Pressure 30.27 in
Visibility 6.2 miles
Clouds Overcast 2500 ft
Dew Point 50 °F
Humidity 57%
Rainfall 0.05 in
Snow Depth Not available.
UV 0.0 out of 12
Pollen Not available.
Air Quality Not available.
Flu Activity Not available.
METAR FBSK 041500Z 06011KT 9999 OVC025 18/08 Q1025 NOSIG

10-Day Weather Forecast

×

Almanac

Astronomy

Sep. 04, 2015 Rise Set
Actual Time
Civil Twilight
Nautical Twilight
Astronomical Twilight
Moon
Length of Visible Light
Length of Day
Tomorrow will be .
, % of the Moon is Illuminated

Today's Extremes

Country Highs Country Lows

Community

WunderPhotos

Upload Photos

1,852,187 photos uploaded!

WunderBlogs® & News

Nearby

Air Quality

  Air Quality AQ Index Pollutant
Not available.

Snow Depth

Station Depth Elevation

Earthquake Activity

City Distance Mag. Time & Date
Minimum magnitude displayed is 2.5.

Coastal Water Temperatures

Place Temperature

Stations

Nearby Weather Stations

Station Location Temp. Windchill Dew Point Humidity Wind Precip. Elev Updated Type